Chickamauga Observed Data For Previous 48 Hours

Caption
Day and Hour Reservoir Elevation (behind dam)* Tailwater Elevation (below dam)* Average Hourly Discharge*
12/10/2018 2 AM EST 678.00 643.55 83,342
12/10/2018 3 AM EST 678.06 643.56 83,572
12/10/2018 4 AM EST 678.12 643.55 83,558
12/10/2018 5 AM EST 678.15 643.52 83,762
12/10/2018 6 AM EST 678.18 643.49 83,780
12/10/2018 7 AM EST 678.21 643.50 83,909
12/10/2018 8 AM EST 678.25 643.52 83,903
12/10/2018 9 AM EST 678.28 643.54 84,034
12/10/2018 10 AM EST 678.28 643.60 83,984
12/10/2018 11 AM EST 678.33 643.63 84,055
12/10/2018 12 PM EST 678.34 643.68 84,039
12/10/2018 1 PM EST 678.36 643.69 84,164
12/10/2018 2 PM EST 678.38 643.71 84,141
12/10/2018 3 PM EST 678.39 643.70 84,226
12/10/2018 4 PM EST 678.39 643.69 84,157
12/10/2018 5 PM EST 678.41 643.70 84,274
12/10/2018 6 PM EST 678.42 643.66 84,229
12/10/2018 7 PM EST 678.43 643.62 84,305
12/10/2018 8 PM EST 678.45 643.62 84,317
12/10/2018 9 PM EST 678.45 643.61 84,354
12/10/2018 10 PM EST 678.47 643.59 84,433
12/10/2018 11 PM EST 678.47 643.57 84,395
12/11/2018 12 AM EST 678.47 643.53 84,498
12/11/2018 1 AM EST 678.48 643.51 84,388
12/11/2018 2 AM EST 678.48 643.47 84,520
12/11/2018 3 AM EST 678.46 643.42 84,499
12/11/2018 4 AM EST 678.47 643.39 84,553
12/11/2018 5 AM EST 678.46 643.35 84,541
12/11/2018 6 AM EST 678.44 643.32 84,592
12/11/2018 7 AM EST 678.46 643.31 84,511
12/11/2018 8 AM EST 678.45 643.30 84,658
12/11/2018 9 AM EST 678.43 643.30 84,535
12/11/2018 10 AM EST 678.43 643.31 84,581
12/11/2018 11 AM EST 678.42 643.28 84,477
12/11/2018 12 PM EST 678.46 643.19 81,284
12/11/2018 1 PM EST 678.43 643.16 83,106
12/11/2018 2 PM EST 678.46 642.96 79,379
12/11/2018 3 PM EST 678.46 643.01 84,624
12/11/2018 4 PM EST 678.40 642.98 84,627
12/11/2018 5 PM EST 678.39 642.97 84,530
12/11/2018 6 PM EST 678.40 642.94 84,609
12/11/2018 7 PM EST 678.38 642.90 84,501
12/11/2018 8 PM EST 678.38 642.99 84,587
12/11/2018 9 PM EST 678.37 642.93 84,482
12/11/2018 10 PM EST 678.34 642.97 84,494
12/11/2018 11 PM EST 678.34 643.05 84,419
12/12/2018 12 AM EST 678.32 642.98 84,475
12/12/2018 1 AM EST 678.32 642.99 84,390
12/12/2018 2 AM EST 678.32 642.92 84,443

Elevations are in feet above sea level. Discharges are in cubic feet per second and are reported at the end of the hour.